Airfield :
LOGIN :

Register | Disclaimer

   EN    FR    IT 

 










Legend :    VFR   Marginal VFR   IFR   Intensive IFR   Very Intensive IFR
Visi :
Ceiling :
>= 8 km
>= 3000ft
5 to 8 km
1000 to 3000 ft
1500m to 5 km
500 to 1000 ft
800 to 1500m
200 to 500 ft
< 800m
< 200 ft
Symbols :   Thunderstorms  Fog  Heavy snow  Heavy precipitations  Wind > 20 kt
SIGMETs :     Misc.  Thunderstorms  Icing  Turbulence  Mountain Waves  Volcanic Ashes






- Airport Elevation : 297 ft
- IATA code : UIP


LFRQ - Quimper Pluguffan

CURRENT METAR :
  • 201700Z AUTO 19011KT 160V220 2600 -RA BR OVC005 11/10 Q0982 TEMPO 20025G40KT 4000 RA BKN008 SCT015CB

EXPIRED METARs :
  • 201630Z AUTO 18015G27KT 150V220 9999 OVC006/// ///CB 11/10 Q0983 TEMPO 20025G40KT 4000 RA
  • 201600Z AUTO 19017G31KT 150V210 9999 -RA FEW009/// BKN016/// BKN024/// ///TCU 11/10 Q0984 TEMPO 4000 RA BKN008 SCT015CB
  • 201530Z AUTO 18016G29KT 160V220 9999 FEW013 OVC028 12/09 Q0985 TEMPO 20025G40KT 4000 RA BKN008 SCT015CB
  • 201500Z AUTO 19015KT 160V220 9999 -RA FEW013/// BKN018/// BKN024/// ///TCU 11/10 Q0986 TEMPO 20025G40KT 4000 RA BKN008 SCT015CB
  • 201430Z AUTO 19016G27KT 160V220 9999 -RA SCT024/// OVC035/// ///TCU 11/09 Q0986 TEMPO 20025G40KT 4000 RA BKN008 SCT015CB

TAF TAF LFRQ
Valid from the 20 at 12:00 until the 21 at 12:00 UTC


201100Z 2012/2112 20020G30KT 9999 BKN030
TEMPO 2012/2021 20025G40KT 4000 RA BKN008 SCT015CB
BECMG 2020/2022 26020G30KT
TEMPO 2100/2106 -SHRA
BECMG 2106/2109 22014G25KT
TEMPO 2109/2112 15013G27KT RA BKN014



MET'MAP, your aeronautical weather chart ! - Copyright ORBIFLY December 2007 - Disclaimer

ORBIFLY MET'MAP TEAM :

Programming & Development : Alexandra Zaïnal
Concept & original design : Baudouin d'Aumeries
Assistance for programming : Marc-Olivier Méhu
Technical & hardware support : Manuel Goepfert

Contact : metmap@orbifly.com




SOURCES & CREDITS :

   NOAA